createdAt,value
2023-02-27T00:02:24.121Z,4.50
2023-02-27T00:04:51.059Z,3.97
2023-02-27T00:07:18.181Z,4.40
2023-02-27T00:09:44.843Z,3.95
2023-02-27T00:12:12.130Z,4.03
2023-02-27T00:14:38.796Z,3.80
2023-02-27T00:17:05.517Z,3.60
2023-02-27T00:19:32.108Z,4.32
2023-02-27T00:21:58.846Z,4.22
2023-02-27T00:24:25.630Z,4.22
2023-02-27T00:26:52.344Z,4.30
2023-02-27T00:29:19.777Z,4.45
2023-02-27T00:31:51.630Z,3.95
2023-02-27T00:34:18.505Z,4.97
2023-02-27T00:36:45.145Z,4.05
2023-02-27T00:39:11.781Z,4.60
2023-02-27T00:41:38.472Z,4.55
2023-02-27T00:44:05.386Z,4.88
2023-02-27T00:46:31.998Z,4.40
2023-02-27T00:48:58.791Z,4.15
2023-02-27T00:51:25.863Z,3.83
2023-02-27T00:53:52.796Z,3.28
2023-02-27T00:56:19.385Z,3.58
2023-02-27T00:58:46.214Z,4.18
2023-02-27T01:01:15.430Z,3.72
2023-02-27T01:03:42.543Z,3.60
2023-02-27T01:06:10.835Z,4.28
2023-02-27T01:08:37.597Z,4.22
2023-02-27T01:11:05.572Z,4.25
2023-02-27T01:13:32.480Z,3.95
2023-02-27T01:15:59.105Z,3.60
2023-02-27T01:18:25.812Z,4.95
2023-02-27T01:20:54.451Z,4.20
2023-02-27T01:23:22.184Z,4.35
2023-02-27T01:25:49.540Z,4.28
2023-02-27T01:28:17.028Z,4.43
2023-02-27T01:30:44.126Z,4.38
2023-02-27T01:33:14.251Z,4.68
2023-02-27T01:35:41.022Z,4.32
2023-02-27T01:38:07.638Z,4.30
2023-02-27T01:40:39.714Z,4.38
2023-02-27T01:43:10.326Z,5.00
2023-02-27T01:45:41.542Z,4.85
2023-02-27T01:48:29.364Z,4.97
2023-02-27T01:51:10.403Z,4.72
2023-02-27T01:53:39.026Z,4.82
2023-02-27T01:56:12.509Z,4.95
2023-02-27T01:58:40.287Z,5.47
2023-02-27T02:01:07.192Z,5.05
2023-02-27T02:03:43.927Z,5.10
2023-02-27T02:06:12.448Z,4.38
2023-02-27T02:08:44.250Z,4.75
2023-02-27T02:11:13.146Z,4.93
2023-02-27T02:13:41.595Z,4.35
2023-02-27T02:16:30.468Z,4.65
2023-02-27T02:19:20.334Z,5.13
2023-02-27T02:22:24.834Z,3.90
2023-02-27T02:25:00.389Z,4.43
2023-02-27T02:30:14.153Z,4.38
2023-02-27T02:32:43.510Z,4.60
2023-02-27T02:35:22.764Z,4.95
2023-02-27T02:38:23.333Z,4.57
2023-02-27T02:41:11.350Z,5.05
2023-02-27T02:44:13.481Z,4.70
2023-02-27T02:47:08.099Z,5.18
2023-02-27T02:49:54.814Z,5.07
2023-02-27T02:52:30.281Z,5.53
2023-02-27T02:55:03.124Z,4.95
2023-02-27T02:57:37.254Z,4.90
2023-02-27T03:00:14.928Z,5.30
2023-02-27T03:02:58.860Z,5.00
2023-02-27T03:05:32.908Z,4.85
2023-02-27T03:08:08.826Z,4.90
2023-02-27T03:10:52.535Z,4.05
2023-02-27T03:13:36.747Z,5.50
2023-02-27T03:16:19.614Z,4.85
2023-02-27T03:19:16.625Z,4.38
2023-02-27T03:22:07.346Z,3.67
2023-02-27T03:24:41.905Z,4.15
2023-02-27T03:27:10.019Z,3.53
2023-02-27T03:30:01.299Z,3.85
2023-02-27T03:32:42.602Z,3.97
2023-02-27T03:35:11.525Z,2.95
2023-02-27T03:38:01.459Z,3.70
2023-02-27T03:41:00.563Z,3.55
2023-02-27T03:44:04.323Z,3.05
2023-02-27T03:46:31.609Z,2.55
2023-02-27T03:48:58.619Z,2.72
2023-02-27T03:51:28.453Z,3.08
2023-02-27T03:54:13.941Z,2.90
2023-02-27T03:56:43.104Z,2.60
2023-02-27T03:59:10.318Z,2.97
2023-02-27T04:01:43.857Z,2.97
2023-02-27T04:04:13.590Z,3.50
2023-02-27T04:07:24.933Z,3.88
2023-02-27T04:09:51.744Z,4.03
2023-02-27T04:12:34.694Z,4.43
2023-02-27T04:15:39.611Z,7.10
2023-02-27T04:18:37.139Z,5.78
2023-02-27T04:21:31.496Z,4.65
2023-02-27T04:24:13.435Z,6.15
2023-02-27T04:26:52.767Z,7.03
2023-02-27T04:29:22.438Z,4.53
2023-02-27T04:32:11.215Z,5.20
2023-02-27T04:34:49.214Z,3.83
2023-02-27T04:37:31.206Z,7.30
2023-02-27T04:40:12.173Z,4.93
2023-02-27T04:42:44.862Z,3.88
2023-02-27T04:45:15.792Z,3.25
2023-02-27T04:48:05.636Z,3.30
2023-02-27T04:50:44.773Z,3.30
2023-02-27T04:53:47.932Z,3.50
2023-02-27T04:56:23.366Z,4.03
2023-02-27T04:58:55.268Z,5.80
2023-02-27T05:01:33.802Z,5.32
2023-02-27T05:04:02.985Z,5.43
2023-02-27T05:06:34.071Z,4.40
2023-02-27T05:09:24.251Z,3.47
2023-02-27T05:11:58.867Z,4.10
2023-02-27T05:14:31.974Z,4.03
2023-02-27T05:17:11.920Z,3.53
2023-02-27T05:19:41.247Z,3.55
2023-02-27T05:22:13.527Z,4.28
2023-02-27T05:25:08.001Z,3.97
2023-02-27T05:27:49.676Z,4.05
2023-02-27T05:30:26.991Z,3.78
2023-02-27T05:33:06.858Z,3.63
2023-02-27T05:35:49.050Z,4.10
2023-02-27T05:38:25.226Z,4.25
2023-02-27T05:41:11.444Z,3.40
2023-02-27T05:43:45.033Z,3.58
2023-02-27T05:46:28.856Z,3.28
2023-02-27T05:49:00.653Z,4.00
2023-02-27T05:51:32.522Z,3.88
2023-02-27T05:54:10.229Z,3.08
2023-02-27T05:56:38.410Z,4.05
2023-02-27T05:59:30.911Z,4.28
2023-02-27T06:01:57.741Z,4.20
2023-02-27T06:04:24.549Z,4.13
2023-02-27T06:06:52.378Z,4.55
2023-02-27T06:09:20.482Z,3.90
2023-02-27T06:11:48.064Z,4.25
2023-02-27T06:14:14.876Z,4.10
2023-02-27T06:16:41.592Z,3.80
2023-02-27T06:19:08.138Z,4.50
2023-02-27T06:21:34.886Z,4.28
2023-02-27T06:24:01.557Z,4.20
2023-02-27T06:26:28.559Z,4.22
2023-02-27T06:28:55.322Z,4.60
2023-02-27T06:31:22.162Z,4.75
2023-02-27T06:33:48.826Z,5.03
2023-02-27T06:36:15.532Z,5.97
2023-02-27T06:38:42.130Z,5.65
2023-02-27T06:41:08.998Z,6.10
2023-02-27T06:43:37.229Z,5.38
2023-02-27T06:46:04.033Z,7.07
2023-02-27T06:48:30.657Z,5.72
2023-02-27T06:50:57.627Z,6.20
2023-02-27T06:53:24.958Z,6.13
2023-02-27T06:55:51.706Z,5.75
2023-02-27T06:58:18.761Z,5.10
2023-02-27T07:00:45.855Z,5.05
2023-02-27T07:03:13.191Z,5.13
2023-02-27T07:05:41.332Z,5.15
2023-02-27T07:08:08.241Z,4.20
2023-02-27T07:10:34.989Z,3.33
2023-02-27T07:13:03.020Z,3.70
2023-02-27T07:15:30.006Z,3.47
2023-02-27T07:17:57.112Z,3.92
2023-02-27T07:20:23.884Z,3.67
2023-02-27T07:22:51.028Z,3.17
2023-02-27T07:25:17.805Z,2.88
2023-02-27T07:27:46.026Z,3.20
2023-02-27T07:30:13.167Z,2.95
2023-02-27T07:32:40.169Z,3.00
2023-02-27T07:35:07.891Z,3.20
2023-02-27T07:37:34.615Z,2.90
2023-02-27T07:40:01.522Z,3.38
2023-02-27T07:42:28.209Z,2.80
2023-02-27T07:44:54.975Z,3.50
2023-02-27T07:47:21.649Z,3.40
2023-02-27T07:49:48.488Z,2.83
2023-02-27T07:52:15.062Z,2.90
2023-02-27T07:54:41.964Z,3.42
2023-02-27T07:57:08.641Z,3.58
2023-02-27T07:59:35.289Z,2.75
2023-02-27T08:02:02.133Z,3.25
2023-02-27T08:04:28.914Z,2.88
2023-02-27T08:06:55.566Z,3.28
2023-02-27T08:09:22.295Z,2.92
2023-02-27T08:11:49.371Z,2.70
2023-02-27T08:14:16.331Z,2.55
2023-02-27T08:16:42.962Z,2.80
2023-02-27T08:19:09.728Z,3.05
2023-02-27T08:21:36.479Z,2.97
2023-02-27T08:24:03.259Z,3.00
2023-02-27T08:26:31.197Z,2.97
2023-02-27T08:28:58.162Z,2.72
2023-02-27T08:31:24.798Z,2.80
2023-02-27T08:34:01.088Z,2.70
2023-02-27T08:36:31.018Z,2.95
2023-02-27T08:38:57.679Z,2.38
2023-02-27T08:41:24.363Z,2.78
2023-02-27T08:43:51.005Z,2.65
2023-02-27T08:46:17.902Z,2.25
2023-02-27T08:48:44.456Z,2.17
2023-02-27T08:51:11.107Z,3.03
2023-02-27T08:53:37.888Z,2.28
2023-02-27T08:56:04.829Z,2.20
2023-02-27T08:58:31.421Z,1.92
2023-02-27T09:00:58.161Z,1.73
2023-02-27T09:03:28.496Z,1.80
2023-02-27T09:05:56.415Z,1.73
2023-02-27T09:08:23.465Z,1.60
2023-02-27T09:10:50.446Z,2.50
2023-02-27T09:13:17.149Z,2.00
2023-02-27T09:15:44.012Z,2.13
2023-02-27T09:18:10.699Z,1.70
2023-02-27T09:20:37.389Z,1.90
2023-02-27T09:23:04.340Z,1.80
2023-02-27T09:25:31.306Z,2.20
2023-02-27T09:27:58.155Z,1.95
2023-02-27T09:30:25.371Z,1.70
2023-02-27T09:32:52.009Z,1.85
2023-02-27T09:35:20.466Z,1.80
2023-02-27T09:37:48.313Z,2.08
2023-02-27T09:40:25.938Z,1.98
2023-02-27T09:42:58.189Z,1.70
2023-02-27T09:45:28.602Z,2.08
2023-02-27T09:48:12.658Z,1.45
2023-02-27T09:50:42.674Z,1.35
2023-02-27T09:53:16.973Z,1.45
2023-02-27T09:55:45.999Z,1.65
2023-02-27T09:58:34.137Z,1.50
2023-02-27T10:01:11.928Z,1.15
2023-02-27T10:04:23.372Z,1.52
2023-02-27T10:07:02.688Z,1.63
2023-02-27T10:09:35.272Z,1.67
2023-02-27T10:12:29.804Z,1.50
2023-02-27T10:15:11.662Z,1.63
2023-02-27T10:17:53.024Z,1.55
2023-02-27T10:20:26.926Z,1.48
2023-02-27T10:22:58.044Z,1.38
2023-02-27T10:25:31.563Z,1.10
2023-02-27T10:28:11.910Z,1.80
2023-02-27T10:30:39.042Z,1.45
2023-02-27T10:33:48.021Z,1.38
2023-02-27T10:36:32.576Z,1.20
2023-02-27T10:39:11.134Z,1.83
2023-02-27T10:41:39.954Z,1.15
2023-02-27T10:44:06.876Z,0.90
2023-02-27T10:46:38.334Z,1.00
2023-02-27T10:49:25.338Z,1.23
2023-02-27T10:52:13.439Z,0.70
2023-02-27T10:54:41.724Z,0.95
2023-02-27T10:57:20.431Z,0.90
2023-02-27T10:59:59.506Z,1.10
2023-02-27T11:02:36.955Z,1.10
2023-02-27T11:05:06.258Z,0.98
2023-02-27T11:07:38.594Z,1.25
2023-02-27T11:10:25.622Z,1.25
2023-02-27T11:13:06.842Z,1.63
2023-02-27T11:15:38.446Z,1.92
2023-02-27T11:18:29.354Z,1.95
2023-02-27T11:21:25.566Z,2.10
2023-02-27T11:24:01.492Z,2.00
2023-02-27T11:26:34.247Z,1.90
2023-02-27T11:29:11.598Z,2.10
2023-02-27T11:31:39.700Z,2.25
2023-02-27T11:34:08.302Z,2.85
2023-02-27T11:36:41.402Z,2.55
2023-02-27T11:39:29.989Z,2.70
2023-02-27T11:41:59.266Z,2.97
2023-02-27T11:44:49.811Z,3.22
2023-02-27T11:47:23.111Z,2.70
2023-02-27T11:49:58.617Z,2.40
2023-02-27T11:52:44.085Z,3.42
2023-02-27T11:55:17.842Z,2.22
2023-02-27T11:57:50.389Z,2.53
2023-02-27T12:00:33.020Z,2.97
2023-02-27T12:03:10.145Z,3.20
2023-02-27T12:05:58.351Z,3.22
2023-02-27T12:08:31.208Z,2.95
2023-02-27T12:11:18.557Z,2.88
2023-02-27T12:13:51.756Z,3.50
2023-02-27T12:16:33.137Z,2.58
2023-02-27T12:19:12.145Z,2.58
2023-02-27T12:21:49.984Z,3.00
2023-02-27T12:24:25.832Z,2.33
2023-02-27T12:27:16.479Z,2.72
2023-02-27T12:29:53.653Z,3.22
2023-02-27T12:32:42.802Z,4.13
2023-02-27T12:35:22.373Z,3.22
2023-02-27T12:37:49.178Z,3.22
2023-02-27T12:40:18.500Z,3.97
2023-02-27T12:42:50.862Z,3.13
2023-02-27T12:45:50.968Z,3.45
2023-02-27T12:48:39.566Z,3.25
2023-02-27T12:51:27.373Z,3.20
2023-02-27T12:54:10.186Z,3.85
2023-02-27T12:57:14.158Z,3.63
2023-02-27T12:59:58.237Z,3.35
2023-02-27T13:02:43.406Z,3.63
2023-02-27T13:05:12.889Z,3.72
2023-02-27T13:07:59.737Z,4.47
2023-02-27T13:10:32.502Z,3.53
2023-02-27T13:13:09.372Z,3.42
2023-02-27T13:16:11.789Z,3.30
2023-02-27T13:18:51.077Z,4.05
2023-02-27T13:21:26.124Z,4.07
2023-02-27T13:24:00.474Z,4.00
2023-02-27T13:26:34.951Z,4.60
2023-02-27T13:29:02.538Z,3.72
2023-02-27T13:32:01.380Z,3.63
2023-02-27T13:34:31.130Z,3.45
2023-02-27T13:37:03.507Z,3.50
2023-02-27T13:39:45.689Z,3.42
2023-02-27T13:42:27.864Z,3.30
2023-02-27T13:44:58.855Z,3.58
2023-02-27T13:47:31.402Z,4.35
2023-02-27T13:50:00.135Z,2.97
2023-02-27T13:52:36.201Z,3.47
2023-02-27T13:55:12.099Z,3.70
2023-02-27T13:57:39.460Z,4.13
2023-02-27T14:00:23.031Z,3.53
2023-02-27T14:03:00.191Z,4.07
2023-02-27T14:05:38.760Z,2.78
2023-02-27T14:08:08.386Z,2.60
2023-02-27T14:10:37.270Z,3.40
2023-02-27T14:13:04.430Z,3.20
2023-02-27T14:15:30.958Z,3.63
2023-02-27T14:18:14.260Z,3.10
2023-02-27T14:20:44.614Z,3.22
2023-02-27T14:23:17.112Z,3.13
2023-02-27T14:25:54.224Z,2.80
2023-02-27T14:28:47.697Z,2.67
2023-02-27T14:31:30.040Z,2.25
2023-02-27T14:34:00.865Z,2.58
2023-02-27T14:36:35.092Z,2.10
2023-02-27T14:39:04.156Z,2.38
2023-02-27T14:41:51.510Z,2.28
2023-02-27T14:44:27.888Z,2.10
2023-02-27T14:47:02.931Z,2.30
2023-02-27T14:49:32.803Z,2.28
2023-02-27T14:52:21.353Z,2.47
2023-02-27T14:54:49.432Z,2.40
2023-02-27T14:57:22.187Z,1.83
2023-02-27T14:59:53.542Z,2.00
2023-02-27T15:02:36.023Z,2.10
2023-02-27T15:05:02.587Z,2.05
2023-02-27T15:07:32.048Z,2.17
2023-02-27T15:10:06.049Z,2.17
2023-02-27T15:12:39.226Z,2.08
2023-02-27T15:15:09.089Z,3.10
2023-02-27T15:17:46.071Z,2.00
2023-02-27T15:20:27.594Z,1.80
2023-02-27T15:22:54.289Z,1.67
2023-02-27T15:25:39.809Z,1.95
2023-02-27T15:28:19.228Z,2.67
2023-02-27T15:30:51.002Z,2.40
2023-02-27T15:33:18.732Z,2.17
2023-02-27T15:35:46.413Z,2.50
2023-02-27T15:38:31.070Z,2.10
2023-02-27T15:40:59.750Z,2.08
2023-02-27T15:43:28.154Z,2.65
2023-02-27T15:45:58.149Z,2.38
2023-02-27T15:48:25.618Z,2.83
2023-02-27T15:50:55.134Z,2.22
2023-02-27T15:53:24.935Z,2.35
2023-02-27T15:55:55.512Z,2.92
2023-02-27T15:58:34.806Z,2.15
2023-02-27T16:01:08.187Z,2.25
2023-02-27T16:03:42.413Z,2.17
2023-02-27T16:06:12.440Z,2.78
2023-02-27T16:08:44.882Z,2.40
2023-02-27T16:11:23.321Z,2.50
2023-02-27T16:13:50.814Z,2.60
2023-02-27T16:16:20.170Z,2.42
2023-02-27T16:18:53.146Z,3.20
2023-02-27T16:21:25.756Z,3.15
2023-02-27T16:23:53.989Z,2.92
2023-02-27T16:26:36.649Z,2.67
2023-02-27T16:29:20.299Z,2.70
2023-02-27T16:31:55.883Z,2.63
2023-02-27T16:37:27.105Z,2.85
2023-02-27T16:39:54.583Z,2.75
2023-02-27T16:42:21.865Z,3.03
2023-02-27T16:44:48.663Z,2.63
2023-02-27T16:47:15.429Z,2.80
2023-02-27T16:49:44.407Z,2.55
2023-02-27T16:52:11.585Z,2.80
2023-02-27T16:54:38.414Z,2.80
2023-02-27T16:57:05.244Z,2.72
2023-02-27T16:59:40.475Z,2.67
2023-02-27T17:02:12.596Z,2.95
2023-02-27T17:04:39.550Z,2.92
2023-02-27T17:07:06.943Z,2.58
2023-02-27T17:09:35.109Z,2.85
2023-02-27T17:12:02.012Z,2.97
2023-02-27T17:14:28.788Z,3.97
2023-02-27T17:17:02.691Z,3.17
2023-02-27T17:19:29.368Z,3.10
2023-02-27T17:21:56.227Z,3.58
2023-02-27T17:24:23.279Z,3.80
2023-02-27T17:26:52.179Z,3.03
2023-02-27T17:29:19.478Z,3.42
2023-02-27T17:31:46.510Z,3.50
2023-02-27T17:34:13.268Z,3.97
2023-02-27T17:36:39.926Z,4.00
2023-02-27T17:39:07.163Z,3.15
2023-02-27T17:41:34.158Z,3.50
2023-02-27T17:44:01.776Z,3.38
2023-02-27T17:46:31.444Z,3.38
2023-02-27T17:49:00.673Z,3.65
2023-02-27T17:51:29.954Z,4.32
2023-02-27T17:53:57.572Z,3.63
2023-02-27T17:56:24.347Z,4.40
2023-02-27T17:58:51.384Z,3.78
2023-02-27T18:01:23.030Z,3.83
2023-02-27T18:03:50.340Z,3.78
2023-02-27T18:06:17.773Z,3.92
2023-02-27T18:08:44.891Z,3.55
2023-02-27T18:11:13.958Z,3.30
2023-02-27T18:13:41.457Z,3.88
2023-02-27T18:16:09.536Z,3.88
2023-02-27T18:18:37.722Z,3.50
2023-02-27T18:21:08.135Z,3.63
2023-02-27T18:23:34.932Z,3.83
2023-02-27T18:26:02.068Z,3.15
2023-02-27T18:28:29.026Z,4.07
2023-02-27T18:30:56.331Z,3.55
2023-02-27T18:33:23.907Z,3.03
2023-02-27T18:35:50.856Z,3.72
2023-02-27T18:38:17.690Z,4.65
2023-02-27T18:40:44.576Z,4.15
2023-02-27T18:43:11.891Z,4.00
2023-02-27T18:45:38.636Z,3.85
2023-02-27T18:48:06.177Z,4.18
2023-02-27T18:50:32.833Z,3.92
2023-02-27T18:53:00.273Z,3.50
2023-02-27T18:55:26.998Z,4.03
2023-02-27T18:57:53.728Z,3.33
2023-02-27T19:00:24.364Z,3.75
2023-02-27T19:02:51.281Z,3.97
2023-02-27T19:05:18.262Z,3.75
2023-02-27T19:07:45.044Z,4.20
2023-02-27T19:10:12.180Z,4.20
2023-02-27T19:12:39.041Z,3.85
2023-02-27T19:15:06.184Z,3.80
2023-02-27T19:17:33.742Z,4.03
2023-02-27T19:20:00.640Z,4.63
2023-02-27T19:22:29.482Z,3.58
2023-02-27T19:24:57.017Z,4.30
2023-02-27T19:27:24.351Z,4.25
2023-02-27T19:29:51.689Z,4.00
2023-02-27T19:32:18.864Z,4.43
2023-02-27T19:34:45.647Z,11.13
2023-02-27T19:37:12.400Z,12.00
2023-02-27T19:39:39.025Z,6.32
2023-02-27T19:42:05.931Z,11.80
2023-02-27T19:44:32.564Z,5.53
2023-02-27T19:47:00.260Z,3.13
2023-02-27T19:49:27.400Z,3.45
2023-02-27T19:51:54.617Z,3.53
2023-02-27T19:54:21.243Z,7.70
2023-02-27T19:56:48.095Z,3.70
2023-02-27T19:59:15.003Z,2.58
2023-02-27T20:01:42.105Z,8.32
2023-02-27T20:04:09.032Z,3.10
2023-02-27T20:06:42.715Z,4.10
2023-02-27T20:09:14.457Z,3.58
2023-02-27T20:11:43.507Z,2.90
2023-02-27T20:14:10.873Z,4.68
2023-02-27T20:16:37.759Z,4.00
2023-02-27T20:19:05.551Z,3.42
2023-02-27T20:21:33.801Z,3.58
2023-02-27T20:24:01.376Z,3.35
2023-02-27T20:26:31.440Z,3.30
2023-02-27T20:29:04.514Z,4.85
2023-02-27T20:31:33.887Z,10.82
2023-02-27T20:34:05.952Z,7.47
2023-02-27T20:36:35.942Z,4.15
2023-02-27T20:39:04.296Z,3.97
2023-02-27T20:41:31.617Z,3.25
2023-02-27T20:43:58.663Z,5.15
2023-02-27T20:46:28.479Z,7.03
2023-02-27T20:48:57.783Z,6.88
2023-02-27T20:51:25.747Z,4.40
2023-02-27T20:53:55.273Z,3.60
2023-02-27T20:56:24.751Z,3.47
2023-02-27T20:58:51.892Z,4.20
2023-02-27T21:01:20.127Z,3.72
2023-02-27T21:03:50.387Z,3.47
2023-02-27T21:06:18.681Z,3.70
2023-02-27T21:08:47.660Z,3.95
2023-02-27T21:11:18.541Z,3.78
2023-02-27T21:13:49.992Z,3.40
2023-02-27T21:16:18.652Z,3.65
2023-02-27T21:18:45.439Z,3.92
2023-02-27T21:21:16.835Z,4.13
2023-02-27T21:23:44.045Z,4.53
2023-02-27T21:26:17.877Z,4.50
2023-02-27T21:28:47.818Z,3.83
2023-02-27T21:31:17.097Z,4.00
2023-02-27T21:33:44.293Z,4.25
2023-02-27T21:36:12.171Z,3.53
2023-02-27T21:38:39.815Z,3.67
2023-02-27T21:41:11.403Z,4.43
2023-02-27T21:43:42.149Z,3.92
2023-02-27T21:46:12.922Z,4.00
2023-02-27T21:48:39.794Z,3.80
2023-02-27T21:51:13.166Z,4.78
2023-02-27T21:53:40.854Z,3.97
2023-02-27T21:56:10.281Z,3.95
2023-02-27T21:58:39.583Z,3.97
2023-02-27T22:01:18.130Z,4.45
2023-02-27T22:03:46.970Z,3.80
2023-02-27T22:06:15.231Z,4.05
2023-02-27T22:08:42.325Z,4.70
2023-02-27T22:11:09.678Z,4.20
2023-02-27T22:13:37.372Z,4.70
2023-02-27T22:16:09.417Z,4.60
2023-02-27T22:18:36.885Z,4.97
2023-02-27T22:21:06.897Z,4.88
2023-02-27T22:23:33.623Z,3.85
2023-02-27T22:26:22.804Z,4.20
2023-02-27T22:28:50.213Z,4.07
2023-02-27T22:31:20.417Z,4.50
2023-02-27T22:33:50.037Z,4.25
2023-02-27T22:36:22.668Z,5.07
2023-02-27T22:38:49.599Z,4.25
2023-02-27T22:41:19.524Z,5.05
2023-02-27T22:43:46.490Z,4.05
2023-02-27T22:46:17.278Z,4.28
2023-02-27T22:48:44.301Z,4.03
2023-02-27T22:51:14.668Z,4.85
2023-02-27T22:53:43.512Z,3.92
2023-02-27T22:56:13.036Z,4.90
2023-02-27T22:58:41.136Z,4.30
2023-02-27T23:01:13.132Z,4.75
2023-02-27T23:03:40.738Z,4.70
2023-02-27T23:06:09.996Z,4.43
2023-02-27T23:08:36.989Z,3.70
2023-02-27T23:11:04.128Z,5.25
2023-02-27T23:13:32.205Z,4.65
2023-02-27T23:15:59.939Z,4.47
2023-02-27T23:18:26.862Z,4.80
2023-02-27T23:20:53.516Z,4.43
2023-02-27T23:23:20.374Z,4.35
2023-02-27T23:25:47.003Z,4.35
2023-02-27T23:28:13.725Z,4.10
2023-02-27T23:30:40.357Z,4.22
2023-02-27T23:33:07.031Z,4.20
2023-02-27T23:35:33.663Z,4.15
2023-02-27T23:38:00.731Z,4.70
2023-02-27T23:40:27.946Z,4.13
2023-02-27T23:42:54.879Z,4.88
2023-02-27T23:45:24.410Z,4.10
2023-02-27T23:47:58.807Z,3.72
2023-02-27T23:50:28.629Z,3.92
2023-02-27T23:52:57.170Z,4.32
2023-02-27T23:55:23.942Z,4.75
2023-02-27T23:57:54.922Z,4.38
